sensor_id;sensor_type;location;lat;lon;timestamp;pressure;altitude;pressure_sealevel;temperature;humidity
18697;BME280;22617;43.690;27.956;2023-03-25T00:04:31;98639.25;;;7.53;77.32
18697;BME280;22617;43.690;27.956;2023-03-25T00:09:40;98640.06;;;7.36;77.05
18697;BME280;22617;43.690;27.956;2023-03-25T00:14:46;98642.66;;;7.35;77.74
18697;BME280;22617;43.690;27.956;2023-03-25T00:20:00;98639.22;;;7.37;77.36
18697;BME280;22617;43.690;27.956;2023-03-25T00:25:17;98629.72;;;7.44;77.29
18697;BME280;22617;43.690;27.956;2023-03-25T00:30:21;98621.94;;;7.29;77.22
18697;BME280;22617;43.690;27.956;2023-03-25T00:35:31;98621.03;;;7.19;77.58
18697;BME280;22617;43.690;27.956;2023-03-25T00:40:48;98624.47;;;7.17;77.78
18697;BME280;22617;43.690;27.956;2023-03-25T00:45:55;98615.88;;;7.28;77.78
18697;BME280;22617;43.690;27.956;2023-03-25T00:51:04;98611.50;;;7.14;78.23
18697;BME280;22617;43.690;27.956;2023-03-25T00:56:11;98603.69;;;7.11;77.97
18697;BME280;22617;43.690;27.956;2023-03-25T01:01:19;98596.78;;;7.02;78.40
18697;BME280;22617;43.690;27.956;2023-03-25T01:06:36;98589.88;;;7.10;78.06
18697;BME280;22617;43.690;27.956;2023-03-25T01:11:47;98574.34;;;7.12;78.41
18697;BME280;22617;43.690;27.956;2023-03-25T01:16:53;98573.47;;;7.07;77.62
18697;BME280;22617;43.690;27.956;2023-03-25T01:22:00;98573.44;;;6.96;77.94
18697;BME280;22617;43.690;27.956;2023-03-25T01:27:06;98563.91;;;6.87;77.84
18697;BME280;22617;43.690;27.956;2023-03-25T01:32:11;98563.06;;;7.00;77.93
18697;BME280;22617;43.690;27.956;2023-03-25T01:37:19;98563.03;;;6.84;77.60
18697;BME280;22617;43.690;27.956;2023-03-25T01:42:24;98563.91;;;6.84;78.07
18697;BME280;22617;43.690;27.956;2023-03-25T01:47:42;98556.19;;;6.95;77.54
18697;BME280;22617;43.690;27.956;2023-03-25T01:52:55;98546.69;;;6.98;77.84
18697;BME280;22617;43.690;27.956;2023-03-25T01:58:08;98538.91;;;7.01;77.90
18697;BME280;22617;43.690;27.956;2023-03-25T02:03:20;98535.47;;;7.03;77.65
18697;BME280;22617;43.690;27.956;2023-03-25T02:08:27;98540.59;;;6.89;77.35
18697;BME280;22617;43.690;27.956;2023-03-25T02:13:36;98547.50;;;6.88;77.91
18697;BME280;22617;43.690;27.956;2023-03-25T02:18:52;98538.81;;;6.77;78.50
18697;BME280;22617;43.690;27.956;2023-03-25T02:24:27;98539.66;;;6.72;79.76
18697;BME280;22617;43.690;27.956;2023-03-25T02:30:01;98534.38;;;6.44;80.95
18697;BME280;22617;43.690;27.956;2023-03-25T02:35:22;98538.59;;;6.29;82.35
18697;BME280;22617;43.690;27.956;2023-03-25T02:40:44;98535.09;;;6.19;83.65
18697;BME280;22617;43.690;27.956;2023-03-25T02:45:57;98531.53;;;5.97;83.76
18697;BME280;22617;43.690;27.956;2023-03-25T02:51:10;98529.84;;;6.05;83.73
18697;BME280;22617;43.690;27.956;2023-03-25T02:56:21;98522.88;;;5.95;84.37
18697;BME280;22617;43.690;27.956;2023-03-25T03:01:28;98508.09;;;5.81;84.39
18697;BME280;22617;43.690;27.956;2023-03-25T03:06:41;98505.53;;;5.82;85.18
18697;BME280;22617;43.690;27.956;2023-03-25T03:12:14;98493.31;;;5.60;86.36
18697;BME280;22617;43.690;27.956;2023-03-25T03:17:35;98482.03;;;5.46;87.81
18697;BME280;22617;43.690;27.956;2023-03-25T03:22:53;98490.47;;;5.26;89.58
18697;BME280;22617;43.690;27.956;2023-03-25T03:28:31;98482.75;;;5.30;90.98
18697;BME280;22617;43.690;27.956;2023-03-25T03:33:46;98484.44;;;5.29;91.96
18697;BME280;22617;43.690;27.956;2023-03-25T03:38:58;98478.47;;;5.35;93.25
18697;BME280;22617;43.690;27.956;2023-03-25T03:44:12;98480.28;;;5.45;94.28
18697;BME280;22617;43.690;27.956;2023-03-25T03:49:22;98475.25;;;5.66;95.24
18697;BME280;22617;43.690;27.956;2023-03-25T03:54:31;98471.88;;;5.75;95.73
18697;BME280;22617;43.690;27.956;2023-03-25T03:59:46;98475.31;;;5.77;95.78
18697;BME280;22617;43.690;27.956;2023-03-25T04:04:55;98473.63;;;5.79;96.24
18697;BME280;22617;43.690;27.956;2023-03-25T04:10:08;98472.84;;;5.87;96.80
18697;BME280;22617;43.690;27.956;2023-03-25T04:15:36;98468.50;;;5.85;96.82
18697;BME280;22617;43.690;27.956;2023-03-25T04:20:45;98467.69;;;5.87;97.42
18697;BME280;22617;43.690;27.956;2023-03-25T04:25:57;98465.22;;;6.08;97.95
18697;BME280;22617;43.690;27.956;2023-03-25T04:31:12;98461.78;;;6.11;98.15
18697;BME280;22617;43.690;27.956;2023-03-25T04:36:20;98469.56;;;6.16;98.13
18697;BME280;22617;43.690;27.956;2023-03-25T04:41:24;98461.00;;;6.35;98.20
18697;BME280;22617;43.690;27.956;2023-03-25T04:46:35;98472.22;;;6.38;97.98
18697;BME280;22617;43.690;27.956;2023-03-25T04:51:41;98461.94;;;6.47;97.80
18697;BME280;22617;43.690;27.956;2023-03-25T04:56:49;98464.53;;;6.55;98.28
18697;BME280;22617;43.690;27.956;2023-03-25T05:01:57;98461.13;;;6.73;98.69
18697;BME280;22617;43.690;27.956;2023-03-25T05:07:01;98465.50;;;6.89;98.81
18697;BME280;22617;43.690;27.956;2023-03-25T05:12:07;98469.84;;;7.08;98.91
18697;BME280;22617;43.690;27.956;2023-03-25T05:17:15;98475.88;;;7.16;98.91
18697;BME280;22617;43.690;27.956;2023-03-25T05:22:21;98472.44;;;7.34;98.62
18697;BME280;22617;43.690;27.956;2023-03-25T05:27:25;98476.75;;;7.56;98.51
18697;BME280;22617;43.690;27.956;2023-03-25T05:32:42;98475.88;;;7.81;98.80
18697;BME280;22617;43.690;27.956;2023-03-25T05:38:00;98462.91;;;7.80;97.90
18697;BME280;22617;43.690;27.956;2023-03-25T05:43:05;98460.28;;;7.92;97.01
18697;BME280;22617;43.690;27.956;2023-03-25T05:48:13;98447.28;;;8.00;96.71
18697;BME280;22617;43.690;27.956;2023-03-25T05:53:23;98454.16;;;8.16;97.14
18697;BME280;22617;43.690;27.956;2023-03-25T05:58:28;98442.00;;;8.36;97.61
18697;BME280;22617;43.690;27.956;2023-03-25T06:03:36;98438.41;;;8.67;97.43
18697;BME280;22617;43.690;27.956;2023-03-25T06:08:42;98433.22;;;8.61;96.35
18697;BME280;22617;43.690;27.956;2023-03-25T06:13:47;98439.16;;;8.80;96.05
18697;BME280;22617;43.690;27.956;2023-03-25T06:18:54;98432.09;;;9.05;95.57
18697;BME280;22617;43.690;27.956;2023-03-25T06:24:10;98434.75;;;8.96;94.34
18697;BME280;22617;43.690;27.956;2023-03-25T06:29:14;98451.19;;;8.98;94.47
18697;BME280;22617;43.690;27.956;2023-03-25T06:34:20;98460.66;;;9.09;94.76
18697;BME280;22617;43.690;27.956;2023-03-25T06:39:37;98470.72;;;9.53;93.45
18697;BME280;22617;43.690;27.956;2023-03-25T06:44:58;98466.78;;;9.98;90.61
18697;BME280;22617;43.690;27.956;2023-03-25T06:50:18;98478.66;;;10.28;87.71
18697;BME280;22617;43.690;27.956;2023-03-25T06:55:33;98487.22;;;10.38;86.70
18697;BME280;22617;43.690;27.956;2023-03-25T07:00:52;98486.53;;;10.25;87.03
18697;BME280;22617;43.690;27.956;2023-03-25T07:06:04;98495.56;;;9.83;88.34
18697;BME280;22617;43.690;27.956;2023-03-25T07:11:13;98478.38;;;9.67;89.78
18697;BME280;22617;43.690;27.956;2023-03-25T07:16:22;98483.59;;;9.67;90.00
18697;BME280;22617;43.690;27.956;2023-03-25T07:21:30;98481.47;;;10.07;88.92
18697;BME280;22617;43.690;27.956;2023-03-25T07:26:48;98472.84;;;10.78;87.42
18697;BME280;22617;43.690;27.956;2023-03-25T07:32:02;98470.72;;;11.03;85.38
18697;BME280;22617;43.690;27.956;2023-03-25T07:37:20;98463.19;;;11.42;83.02
18697;BME280;22617;43.690;27.956;2023-03-25T07:42:25;98457.84;;;11.49;83.45
18697;BME280;22617;43.690;27.956;2023-03-25T07:47:51;98451.22;;;11.82;81.46
18697;BME280;22617;43.690;27.956;2023-03-25T07:53:01;98430.50;;;12.19;79.59
18697;BME280;22617;43.690;27.956;2023-03-25T07:58:10;98440.75;;;12.28;79.15
18697;BME280;22617;43.690;27.956;2023-03-25T08:03:16;98441.78;;;12.64;78.90
18697;BME280;22617;43.690;27.956;2023-03-25T08:08:22;98427.72;;;13.06;77.49
18697;BME280;22617;43.690;27.956;2023-03-25T08:13:31;98421.84;;;12.97;76.86
18697;BME280;22617;43.690;27.956;2023-03-25T08:18:59;98424.88;;;13.19;76.52
18697;BME280;22617;43.690;27.956;2023-03-25T08:24:07;98426.38;;;13.63;74.84
18697;BME280;22617;43.690;27.956;2023-03-25T08:29:17;98407.88;;;13.36;74.91
18697;BME280;22617;43.690;27.956;2023-03-25T08:34:23;98411.47;;;13.98;74.74
18697;BME280;22617;43.690;27.956;2023-03-25T08:39:40;98406.84;;;13.76;73.46
18697;BME280;22617;43.690;27.956;2023-03-25T08:44:47;98409.91;;;14.24;73.36
18697;BME280;22617;43.690;27.956;2023-03-25T08:49:52;98399.56;;;14.49;71.52
18697;BME280;22617;43.690;27.956;2023-03-25T08:55:03;98408.75;;;14.63;71.55
18697;BME280;22617;43.690;27.956;2023-03-25T09:00:14;98410.41;;;15.23;72.07
18697;BME280;22617;43.690;27.956;2023-03-25T09:05:26;98406.19;;;14.62;71.56
18697;BME280;22617;43.690;27.956;2023-03-25T09:10:44;98402.50;;;15.24;71.65
18697;BME280;22617;43.690;27.956;2023-03-25T09:16:08;98390.63;;;15.39;69.45
18697;BME280;22617;43.690;27.956;2023-03-25T09:21:24;98392.31;;;15.40;69.16
18697;BME280;22617;43.690;27.956;2023-03-25T09:26:35;98392.03;;;15.23;69.77
18697;BME280;22617;43.690;27.956;2023-03-25T09:31:46;98384.91;;;15.26;68.10
18697;BME280;22617;43.690;27.956;2023-03-25T09:36:55;98376.13;;;15.27;68.44
18697;BME280;22617;43.690;27.956;2023-03-25T09:42:29;98382.94;;;15.59;67.68
18697;BME280;22617;43.690;27.956;2023-03-25T09:47:51;98373.31;;;15.60;68.24
18697;BME280;22617;43.690;27.956;2023-03-25T09:53:04;98359.16;;;15.89;68.49
18697;BME280;22617;43.690;27.956;2023-03-25T09:58:40;98361.06;;;15.84;68.07
18697;BME280;22617;43.690;27.956;2023-03-25T10:03:58;98344.38;;;15.61;67.87
18697;BME280;22617;43.690;27.956;2023-03-25T10:09:26;98356.84;;;16.28;66.48
18697;BME280;22617;43.690;27.956;2023-03-25T10:14:58;98348.38;;;16.43;65.82
18697;BME280;22617;43.690;27.956;2023-03-25T10:20:34;98335.41;;;16.62;67.40
18697;BME280;22617;43.690;27.956;2023-03-25T10:25:48;98323.00;;;16.87;65.24
18697;BME280;22617;43.690;27.956;2023-03-25T10:30:59;98307.69;;;16.75;66.52
18697;BME280;22617;43.690;27.956;2023-03-25T10:36:13;98306.25;;;17.10;65.23
18697;BME280;22617;43.690;27.956;2023-03-25T10:41:24;98290.34;;;17.33;64.22
18697;BME280;22617;43.690;27.956;2023-03-25T10:46:34;98291.50;;;17.68;62.85
18697;BME280;22617;43.690;27.956;2023-03-25T10:51:52;98263.16;;;17.73;62.73
18697;BME280;22617;43.690;27.956;2023-03-25T10:57:02;98271.94;;;17.73;63.40
18697;BME280;22617;43.690;27.956;2023-03-25T11:02:23;98260.31;;;17.77;63.70
18697;BME280;22617;43.690;27.956;2023-03-25T11:07:32;98263.88;;;17.56;63.41
18697;BME280;22617;43.690;27.956;2023-03-25T11:12:41;98246.41;;;17.54;62.22
18697;BME280;22617;43.690;27.956;2023-03-25T11:18:11;98231.59;;;17.90;61.46
18697;BME280;22617;43.690;27.956;2023-03-25T11:23:25;98225.13;;;18.35;61.00
18697;BME280;22617;43.690;27.956;2023-03-25T11:28:36;98227.34;;;18.25;60.50
18697;BME280;22617;43.690;27.956;2023-03-25T11:34:03;98209.66;;;17.90;61.19
18697;BME280;22617;43.690;27.956;2023-03-25T11:39:16;98192.09;;;18.45;59.71
18697;BME280;22617;43.690;27.956;2023-03-25T11:44:32;98198.75;;;18.35;61.72
18697;BME280;22617;43.690;27.956;2023-03-25T11:49:48;98180.03;;;18.03;61.74
18697;BME280;22617;43.690;27.956;2023-03-25T11:54:53;98179.81;;;18.44;60.80
18697;BME280;22617;43.690;27.956;2023-03-25T12:00:02;98174.75;;;18.03;60.13
18697;BME280;22617;43.690;27.956;2023-03-25T12:05:23;98177.50;;;18.19;60.16
18697;BME280;22617;43.690;27.956;2023-03-25T12:10:47;98177.16;;;17.70;60.11
18697;BME280;22617;43.690;27.956;2023-03-25T12:16:13;98179.16;;;17.65;60.67
18697;BME280;22617;43.690;27.956;2023-03-25T12:21:36;98162.47;;;18.57;61.73
18697;BME280;22617;43.690;27.956;2023-03-25T12:26:53;98157.81;;;18.62;60.67
18697;BME280;22617;43.690;27.956;2023-03-25T12:32:15;98156.50;;;17.99;62.06
18697;BME280;22617;43.690;27.956;2023-03-25T12:37:39;98146.44;;;18.43;61.72
18697;BME280;22617;43.690;27.956;2023-03-25T12:43:02;98147.63;;;17.82;60.99
18697;BME280;22617;43.690;27.956;2023-03-25T12:48:16;98131.81;;;17.64;62.44
18697;BME280;22617;43.690;27.956;2023-03-25T12:53:51;98129.00;;;17.67;62.79
18697;BME280;22617;43.690;27.956;2023-03-25T12:59:21;98113.47;;;17.98;61.97
18697;BME280;22617;43.690;27.956;2023-03-25T13:05:04;98106.75;;;17.35;63.22
18697;BME280;22617;43.690;27.956;2023-03-25T13:10:19;98109.59;;;16.91;64.47
18697;BME280;22617;43.690;27.956;2023-03-25T13:15:27;98106.94;;;17.12;63.63
18697;BME280;22617;43.690;27.956;2023-03-25T13:20:36;98094.06;;;17.24;64.41
18697;BME280;22617;43.690;27.956;2023-03-25T13:25:50;98088.66;;;17.27;62.99
18697;BME280;22617;43.690;27.956;2023-03-25T13:31:00;98088.19;;;16.79;64.92
18697;BME280;22617;43.690;27.956;2023-03-25T13:36:19;98079.69;;;17.31;64.74
18697;BME280;22617;43.690;27.956;2023-03-25T13:41:41;98073.66;;;16.90;63.65
18697;BME280;22617;43.690;27.956;2023-03-25T13:47:03;98074.38;;;16.11;65.51
18697;BME280;22617;43.690;27.956;2023-03-25T13:52:12;98064.88;;;15.42;65.75
18697;BME280;22617;43.690;27.956;2023-03-25T13:57:33;98057.25;;;15.81;66.95
18697;BME280;22617;43.690;27.956;2023-03-25T14:03:13;98055.25;;;15.43;67.55
18697;BME280;22617;43.690;27.956;2023-03-25T14:08:51;98054.84;;;15.07;67.30
18697;BME280;22617;43.690;27.956;2023-03-25T14:14:08;98067.72;;;14.66;68.79
18697;BME280;22617;43.690;27.956;2023-03-25T14:19:27;98065.19;;;14.12;70.06
18697;BME280;22617;43.690;27.956;2023-03-25T14:24:34;98070.53;;;13.81;70.97
18697;BME280;22617;43.690;27.956;2023-03-25T14:29:42;98063.72;;;13.49;72.01
18697;BME280;22617;43.690;27.956;2023-03-25T14:34:50;98065.44;;;13.50;72.68
18697;BME280;22617;43.690;27.956;2023-03-25T14:46:14;98056.69;;;12.91;73.83
18697;BME280;22617;43.690;27.956;2023-03-25T14:51:48;98069.31;;;12.45;74.66
18697;BME280;22617;43.690;27.956;2023-03-25T14:56:58;98066.97;;;12.36;75.38
18697;BME280;22617;43.690;27.956;2023-03-25T15:02:14;98059.09;;;12.03;75.47
18697;BME280;22617;43.690;27.956;2023-03-25T15:07:40;98060.75;;;11.69;76.04
18697;BME280;22617;43.690;27.956;2023-03-25T15:12:51;98043.56;;;11.97;76.70
18697;BME280;22617;43.690;27.956;2023-03-25T15:18:00;98064.19;;;11.72;77.02
18697;BME280;22617;43.690;27.956;2023-03-25T15:23:34;98056.53;;;11.65;77.56
18697;BME280;22617;43.690;27.956;2023-03-25T15:34:47;98042.72;;;11.21;77.82
18697;BME280;22617;43.690;27.956;2023-03-25T15:40:09;98046.34;;;11.14;77.85
18697;BME280;22617;43.690;27.956;2023-03-25T15:51:16;98041.59;;;10.93;79.23
18697;BME280;22617;43.690;27.956;2023-03-25T15:56:31;98042.88;;;10.74;80.92
18697;BME280;22617;43.690;27.956;2023-03-25T16:01:42;98040.41;;;10.65;79.93
18697;BME280;22617;43.690;27.956;2023-03-25T16:07:08;98049.47;;;10.45;79.82
18697;BME280;22617;43.690;27.956;2023-03-25T16:12:18;98045.22;;;10.41;80.11
18697;BME280;22617;43.690;27.956;2023-03-25T16:17:30;98049.06;;;10.22;81.16
18697;BME280;22617;43.690;27.956;2023-03-25T16:22:42;98053.50;;;10.14;81.22
18697;BME280;22617;43.690;27.956;2023-03-25T16:27:51;98053.69;;;10.03;81.24
18697;BME280;22617;43.690;27.956;2023-03-25T16:33:08;98057.06;;;10.10;81.64
18697;BME280;22617;43.690;27.956;2023-03-25T16:38:25;98055.56;;;9.97;81.74
18697;BME280;22617;43.690;27.956;2023-03-25T16:43:36;98055.59;;;9.94;81.01
18697;BME280;22617;43.690;27.956;2023-03-25T16:48:50;98059.91;;;9.95;81.02
18697;BME280;22617;43.690;27.956;2023-03-25T16:53:58;98054.72;;;9.95;81.61
18697;BME280;22617;43.690;27.956;2023-03-25T16:59:14;98061.97;;;9.76;81.54
18697;BME280;22617;43.690;27.956;2023-03-25T17:04:36;98056.78;;;9.75;81.74
18697;BME280;22617;43.690;27.956;2023-03-25T17:09:49;98048.88;;;9.81;81.79
18697;BME280;22617;43.690;27.956;2023-03-25T17:15:05;98056.78;;;9.75;81.96
18697;BME280;22617;43.690;27.956;2023-03-25T17:20:18;98061.03;;;9.79;82.21
18697;BME280;22617;43.690;27.956;2023-03-25T17:25:49;98056.03;;;9.68;82.18
18697;BME280;22617;43.690;27.956;2023-03-25T17:30:55;98069.06;;;9.67;82.12
18697;BME280;22617;43.690;27.956;2023-03-25T17:36:01;98070.78;;;9.68;82.54
18697;BME280;22617;43.690;27.956;2023-03-25T17:41:12;98071.81;;;9.56;82.61
18697;BME280;22617;43.690;27.956;2023-03-25T17:46:20;98068.34;;;9.57;83.21
18697;BME280;22617;43.690;27.956;2023-03-25T17:51:27;98071.09;;;9.46;83.34
18697;BME280;22617;43.690;27.956;2023-03-25T17:56:38;98070.06;;;9.56;83.32
18697;BME280;22617;43.690;27.956;2023-03-25T18:01:42;98066.75;;;9.45;83.70
18697;BME280;22617;43.690;27.956;2023-03-25T18:07:09;98062.34;;;9.50;83.54
18697;BME280;22617;43.690;27.956;2023-03-25T18:12:18;98055.56;;;9.42;83.87
18697;BME280;22617;43.690;27.956;2023-03-25T18:17:30;98052.03;;;9.46;83.89
18697;BME280;22617;43.690;27.956;2023-03-25T18:22:35;98054.69;;;9.43;83.90
18697;BME280;22617;43.690;27.956;2023-03-25T18:28:00;98049.34;;;9.52;83.68
18697;BME280;22617;43.690;27.956;2023-03-25T18:33:07;98050.28;;;9.46;83.75
18697;BME280;22617;43.690;27.956;2023-03-25T18:38:19;98043.28;;;9.51;84.69
18697;BME280;22617;43.690;27.956;2023-03-25T18:43:35;98047.66;;;9.48;83.88
18697;BME280;22617;43.690;27.956;2023-03-25T18:48:48;98050.22;;;9.51;83.99
18697;BME280;22617;43.690;27.956;2023-03-25T18:54:00;98047.53;;;9.55;84.36
18697;BME280;22617;43.690;27.956;2023-03-25T18:59:10;98046.81;;;9.47;84.26
18697;BME280;22617;43.690;27.956;2023-03-25T19:04:24;98048.31;;;9.62;84.14
18697;BME280;22617;43.690;27.956;2023-03-25T19:09:44;98039.78;;;9.54;84.19
18697;BME280;22617;43.690;27.956;2023-03-25T19:14:51;98032.84;;;9.53;83.97
18697;BME280;22617;43.690;27.956;2023-03-25T19:20:14;98031.84;;;9.61;83.98
18697;BME280;22617;43.690;27.956;2023-03-25T19:25:22;98032.63;;;9.67;83.20
18697;BME280;22617;43.690;27.956;2023-03-25T19:30:39;98029.19;;;9.64;83.32
18697;BME280;22617;43.690;27.956;2023-03-25T19:35:53;98030.91;;;9.66;83.43
18697;BME280;22617;43.690;27.956;2023-03-25T19:41:01;98024.88;;;9.63;83.47
18697;BME280;22617;43.690;27.956;2023-03-25T19:46:47;98036.00;;;9.73;82.63
18697;BME280;22617;43.690;27.956;2023-03-25T19:52:07;98029.25;;;9.61;83.10
18697;BME280;22617;43.690;27.956;2023-03-25T19:57:23;98038.72;;;9.66;82.64
18697;BME280;22617;43.690;27.956;2023-03-25T20:03:12;98024.84;;;9.65;83.28
18697;BME280;22617;43.690;27.956;2023-03-25T20:08:29;98028.47;;;9.56;82.73
18697;BME280;22617;43.690;27.956;2023-03-25T20:13:40;98028.53;;;9.50;83.49
18697;BME280;22617;43.690;27.956;2023-03-25T20:19:20;98024.34;;;9.42;83.48
18697;BME280;22617;43.690;27.956;2023-03-25T20:25:09;98013.88;;;9.46;83.82
18697;BME280;22617;43.690;27.956;2023-03-25T20:31:39;98016.41;;;9.51;83.45
18697;BME280;22617;43.690;27.956;2023-03-25T20:51:43;98010.31;;;9.52;84.08
18697;BME280;22617;43.690;27.956;2023-03-25T20:57:33;98012.06;;;9.51;84.89
18697;BME280;22617;43.690;27.956;2023-03-25T21:03:41;98005.41;;;9.34;84.96
18697;BME280;22617;43.690;27.956;2023-03-25T21:09:10;97996.47;;;9.51;85.19
18697;BME280;22617;43.690;27.956;2023-03-25T21:14:30;97992.91;;;9.55;84.25
18697;BME280;22617;43.690;27.956;2023-03-25T21:19:38;97987.69;;;9.58;84.87
18697;BME280;22617;43.690;27.956;2023-03-25T21:24:50;97972.00;;;9.61;84.09
18697;BME280;22617;43.690;27.956;2023-03-25T21:30:22;97980.78;;;9.54;84.47
18697;BME280;22617;43.690;27.956;2023-03-25T21:35:44;97971.06;;;9.67;84.64
18697;BME280;22617;43.690;27.956;2023-03-25T21:41:33;97961.69;;;9.58;84.56
18697;BME280;22617;43.690;27.956;2023-03-25T21:47:16;97961.34;;;9.77;84.43
18697;BME280;22617;43.690;27.956;2023-03-25T22:05:58;97947.69;;;10.12;83.09
18697;BME280;22617;43.690;27.956;2023-03-25T22:11:36;97941.41;;;10.23;82.98
18697;BME280;22617;43.690;27.956;2023-03-25T22:16:45;97940.47;;;10.27;83.17
18697;BME280;22617;43.690;27.956;2023-03-25T22:22:04;97934.94;;;10.42;82.17
18697;BME280;22617;43.690;27.956;2023-03-25T22:27:25;97927.09;;;10.44;82.58
18697;BME280;22617;43.690;27.956;2023-03-25T22:33:06;97926.53;;;10.70;81.55
18697;BME280;22617;43.690;27.956;2023-03-25T22:38:30;97934.97;;;10.82;80.46
18697;BME280;22617;43.690;27.956;2023-03-25T22:43:40;97938.25;;;10.90;80.34
18697;BME280;22617;43.690;27.956;2023-03-25T22:49:23;97939.97;;;10.91;80.41
18697;BME280;22617;43.690;27.956;2023-03-25T23:01:58;97943.66;;;10.81;81.09
18697;BME280;22617;43.690;27.956;2023-03-25T23:07:44;97940.47;;;11.07;79.66
18697;BME280;22617;43.690;27.956;2023-03-25T23:12:56;97942.41;;;11.36;78.71
18697;BME280;22617;43.690;27.956;2023-03-25T23:50:46;97944.66;;;12.17;75.84
18697;BME280;22617;43.690;27.956;2023-03-25T23:56:00;97940.66;;;12.37;75.00
